sensor_id;sensor_type;location;lat;lon;timestamp;P1;durP1;ratioP1;P2;durP2;ratioP2
48665;SDS011;34452;50.796;4.994;2024-03-23T00:55:44;17.48;;;3.30;;
48665;SDS011;34452;50.796;4.994;2024-03-23T00:58:10;17.73;;;2.72;;
48665;SDS011;34452;50.796;4.994;2024-03-23T01:00:36;10.37;;;2.40;;
48665;SDS011;34452;50.796;4.994;2024-03-23T01:03:01;13.70;;;3.35;;
48665;SDS011;34452;50.796;4.994;2024-03-23T01:05:27;8.85;;;2.40;;
48665;SDS011;34452;50.796;4.994;2024-03-23T01:07:53;9.57;;;2.45;;
48665;SDS011;34452;50.796;4.994;2024-03-23T01:10:19;10.93;;;2.58;;
48665;SDS011;34452;50.796;4.994;2024-03-23T01:12:44;9.75;;;2.30;;
48665;SDS011;34452;50.796;4.994;2024-03-23T01:15:11;13.52;;;2.17;;
48665;SDS011;34452;50.796;4.994;2024-03-23T01:17:36;11.95;;;2.72;;
48665;SDS011;34452;50.796;4.994;2024-03-23T01:20:02;9.15;;;2.53;;
48665;SDS011;34452;50.796;4.994;2024-03-23T01:22:29;11.88;;;2.72;;
48665;SDS011;34452;50.796;4.994;2024-03-23T01:24:54;8.38;;;2.15;;
48665;SDS011;34452;50.796;4.994;2024-03-23T01:27:20;14.80;;;3.38;;
48665;SDS011;34452;50.796;4.994;2024-03-23T01:29:46;20.58;;;2.80;;
48665;SDS011;34452;50.796;4.994;2024-03-23T01:32:12;8.88;;;2.20;;
48665;SDS011;34452;50.796;4.994;2024-03-23T01:34:38;14.38;;;2.67;;
48665;SDS011;34452;50.796;4.994;2024-03-23T01:37:03;14.13;;;3.85;;
48665;SDS011;34452;50.796;4.994;2024-03-23T01:39:29;10.95;;;3.50;;
48665;SDS011;34452;50.796;4.994;2024-03-23T01:41:55;7.65;;;2.47;;
48665;SDS011;34452;50.796;4.994;2024-03-23T01:44:21;18.75;;;3.67;;
48665;SDS011;34452;50.796;4.994;2024-03-23T01:46:46;17.63;;;3.63;;
48665;SDS011;34452;50.796;4.994;2024-03-23T01:49:13;16.02;;;3.15;;
48665;SDS011;34452;50.796;4.994;2024-03-23T01:51:39;14.25;;;2.70;;
48665;SDS011;34452;50.796;4.994;2024-03-23T01:54:05;10.90;;;2.40;;
48665;SDS011;34452;50.796;4.994;2024-03-23T01:56:33;8.55;;;2.55;;
48665;SDS011;34452;50.796;4.994;2024-03-23T01:59:02;12.70;;;3.30;;
48665;SDS011;34452;50.796;4.994;2024-03-23T02:01:28;12.93;;;3.13;;
48665;SDS011;34452;50.796;4.994;2024-03-23T02:06:20;13.07;;;2.58;;
48665;SDS011;34452;50.796;4.994;2024-03-23T02:08:47;12.63;;;2.38;;
48665;SDS011;34452;50.796;4.994;2024-03-23T02:13:39;11.32;;;2.60;;
48665;SDS011;34452;50.796;4.994;2024-03-23T02:16:05;24.10;;;4.10;;
48665;SDS011;34452;50.796;4.994;2024-03-23T02:20:57;8.05;;;2.30;;
48665;SDS011;34452;50.796;4.994;2024-03-23T02:23:23;11.60;;;2.65;;
48665;SDS011;34452;50.796;4.994;2024-03-23T02:25:49;16.38;;;2.75;;
48665;SDS011;34452;50.796;4.994;2024-03-23T02:28:15;12.13;;;3.08;;
48665;SDS011;34452;50.796;4.994;2024-03-23T02:30:42;12.30;;;2.53;;
48665;SDS011;34452;50.796;4.994;2024-03-23T02:33:08;10.48;;;2.92;;
48665;SDS011;34452;50.796;4.994;2024-03-23T02:35:34;12.32;;;3.05;;
48665;SDS011;34452;50.796;4.994;2024-03-23T02:38:00;9.40;;;2.53;;
48665;SDS011;34452;50.796;4.994;2024-03-23T02:40:26;12.38;;;2.95;;
48665;SDS011;34452;50.796;4.994;2024-03-23T02:42:52;14.52;;;2.75;;
48665;SDS011;34452;50.796;4.994;2024-03-23T02:45:18;9.25;;;3.30;;
48665;SDS011;34452;50.796;4.994;2024-03-23T02:47:44;10.45;;;3.03;;
48665;SDS011;34452;50.796;4.994;2024-03-23T02:50:10;8.40;;;3.10;;
48665;SDS011;34452;50.796;4.994;2024-03-23T02:52:36;13.25;;;3.22;;
48665;SDS011;34452;50.796;4.994;2024-03-23T02:55:02;14.77;;;3.97;;
48665;SDS011;34452;50.796;4.994;2024-03-23T02:57:29;13.60;;;4.13;;
48665;SDS011;34452;50.796;4.994;2024-03-23T02:59:54;14.15;;;4.25;;
48665;SDS011;34452;50.796;4.994;2024-03-23T03:02:21;12.20;;;3.90;;
48665;SDS011;34452;50.796;4.994;2024-03-23T03:04:47;19.17;;;4.82;;
48665;SDS011;34452;50.796;4.994;2024-03-23T03:07:13;15.60;;;3.80;;
48665;SDS011;34452;50.796;4.994;2024-03-23T03:12:05;12.10;;;4.70;;
48665;SDS011;34452;50.796;4.994;2024-03-23T03:14:31;9.82;;;3.50;;
48665;SDS011;34452;50.796;4.994;2024-03-23T03:16:57;13.52;;;3.67;;
48665;SDS011;34452;50.796;4.994;2024-03-23T03:19:23;14.52;;;3.97;;
48665;SDS011;34452;50.796;4.994;2024-03-23T03:21:49;10.45;;;3.47;;
48665;SDS011;34452;50.796;4.994;2024-03-23T03:24:15;11.30;;;3.90;;
48665;SDS011;34452;50.796;4.994;2024-03-23T03:26:41;15.98;;;3.80;;
48665;SDS011;34452;50.796;4.994;2024-03-23T03:29:07;11.35;;;3.80;;
48665;SDS011;34452;50.796;4.994;2024-03-23T03:31:32;14.60;;;4.45;;
48665;SDS011;34452;50.796;4.994;2024-03-23T03:33:58;12.70;;;3.78;;
48665;SDS011;34452;50.796;4.994;2024-03-23T03:36:24;11.20;;;3.22;;
48665;SDS011;34452;50.796;4.994;2024-03-23T03:38:50;15.18;;;4.60;;
48665;SDS011;34452;50.796;4.994;2024-03-23T03:41:15;16.08;;;4.20;;
48665;SDS011;34452;50.796;4.994;2024-03-23T03:43:41;12.48;;;3.85;;
48665;SDS011;34452;50.796;4.994;2024-03-23T03:46:07;13.32;;;3.92;;
48665;SDS011;34452;50.796;4.994;2024-03-23T03:48:33;16.52;;;5.32;;
48665;SDS011;34452;50.796;4.994;2024-03-23T03:50:59;11.52;;;4.47;;
48665;SDS011;34452;50.796;4.994;2024-03-23T03:53:25;14.82;;;4.40;;
48665;SDS011;34452;50.796;4.994;2024-03-23T03:55:51;16.45;;;5.63;;
48665;SDS011;34452;50.796;4.994;2024-03-23T03:58:17;14.80;;;5.43;;
48665;SDS011;34452;50.796;4.994;2024-03-23T04:00:43;14.80;;;5.78;;
48665;SDS011;34452;50.796;4.994;2024-03-23T04:03:08;20.73;;;6.10;;
48665;SDS011;34452;50.796;4.994;2024-03-23T04:05:34;18.55;;;6.10;;
48665;SDS011;34452;50.796;4.994;2024-03-23T04:08:00;13.88;;;6.32;;
48665;SDS011;34452;50.796;4.994;2024-03-23T04:10:26;15.70;;;5.80;;
48665;SDS011;34452;50.796;4.994;2024-03-23T04:12:52;19.05;;;6.40;;
48665;SDS011;34452;50.796;4.994;2024-03-23T04:15:19;19.50;;;6.43;;
48665;SDS011;34452;50.796;4.994;2024-03-23T04:20:11;22.15;;;7.53;;
48665;SDS011;34452;50.796;4.994;2024-03-23T04:22:39;22.92;;;7.95;;
48665;SDS011;34452;50.796;4.994;2024-03-23T04:25:05;21.35;;;7.32;;
48665;SDS011;34452;50.796;4.994;2024-03-23T04:27:34;21.25;;;8.00;;
48665;SDS011;34452;50.796;4.994;2024-03-23T04:30:00;24.95;;;8.10;;
48665;SDS011;34452;50.796;4.994;2024-03-23T04:32:28;21.00;;;7.82;;
48665;SDS011;34452;50.796;4.994;2024-03-23T04:34:54;29.88;;;9.88;;
48665;SDS011;34452;50.796;4.994;2024-03-23T04:37:22;25.67;;;9.15;;
48665;SDS011;34452;50.796;4.994;2024-03-23T04:39:48;23.83;;;9.75;;
48665;SDS011;34452;50.796;4.994;2024-03-23T04:42:14;18.25;;;8.95;;
48665;SDS011;34452;50.796;4.994;2024-03-23T04:44:41;22.27;;;9.07;;
48665;SDS011;34452;50.796;4.994;2024-03-23T04:47:07;23.83;;;10.05;;
48665;SDS011;34452;50.796;4.994;2024-03-23T04:49:33;21.08;;;9.63;;
48665;SDS011;34452;50.796;4.994;2024-03-23T04:51:59;25.65;;;9.95;;
48665;SDS011;34452;50.796;4.994;2024-03-23T04:54:25;23.75;;;10.45;;
48665;SDS011;34452;50.796;4.994;2024-03-23T04:56:50;32.20;;;11.20;;
48665;SDS011;34452;50.796;4.994;2024-03-23T04:59:16;26.20;;;9.90;;
48665;SDS011;34452;50.796;4.994;2024-03-23T05:01:42;25.40;;;10.27;;
48665;SDS011;34452;50.796;4.994;2024-03-23T05:04:08;29.70;;;10.77;;
48665;SDS011;34452;50.796;4.994;2024-03-23T05:06:35;31.77;;;10.85;;
48665;SDS011;34452;50.796;4.994;2024-03-23T05:09:00;24.92;;;10.48;;
48665;SDS011;34452;50.796;4.994;2024-03-23T05:11:35;30.63;;;10.65;;
48665;SDS011;34452;50.796;4.994;2024-03-23T05:14:01;19.85;;;9.77;;
48665;SDS011;34452;50.796;4.994;2024-03-23T05:16:28;24.65;;;11.15;;
48665;SDS011;34452;50.796;4.994;2024-03-23T05:18:54;28.38;;;10.80;;
48665;SDS011;34452;50.796;4.994;2024-03-23T05:21:20;32.35;;;11.57;;
48665;SDS011;34452;50.796;4.994;2024-03-23T05:23:45;29.02;;;10.40;;
48665;SDS011;34452;50.796;4.994;2024-03-23T05:26:12;28.88;;;11.55;;
48665;SDS011;34452;50.796;4.994;2024-03-23T05:31:04;23.67;;;9.77;;
48665;SDS011;34452;50.796;4.994;2024-03-23T05:33:30;27.45;;;10.35;;
48665;SDS011;34452;50.796;4.994;2024-03-23T05:35:56;25.98;;;10.85;;
48665;SDS011;34452;50.796;4.994;2024-03-23T05:38:23;25.08;;;10.20;;
48665;SDS011;34452;50.796;4.994;2024-03-23T05:40:55;27.88;;;11.38;;
48665;SDS011;34452;50.796;4.994;2024-03-23T05:43:21;28.38;;;11.60;;
48665;SDS011;34452;50.796;4.994;2024-03-23T05:45:57;26.15;;;10.18;;
48665;SDS011;34452;50.796;4.994;2024-03-23T05:48:24;22.92;;;11.07;;
48665;SDS011;34452;50.796;4.994;2024-03-23T05:50:50;29.00;;;11.35;;
48665;SDS011;34452;50.796;4.994;2024-03-23T05:53:16;29.35;;;10.77;;
48665;SDS011;34452;50.796;4.994;2024-03-23T05:58:08;27.55;;;10.90;;
48665;SDS011;34452;50.796;4.994;2024-03-23T06:03:01;25.55;;;9.18;;
48665;SDS011;34452;50.796;4.994;2024-03-23T06:05:26;25.30;;;9.88;;
48665;SDS011;34452;50.796;4.994;2024-03-23T06:07:52;23.88;;;8.68;;
48665;SDS011;34452;50.796;4.994;2024-03-23T06:10:18;26.88;;;8.05;;
48665;SDS011;34452;50.796;4.994;2024-03-23T06:12:45;21.00;;;6.60;;
48665;SDS011;34452;50.796;4.994;2024-03-23T06:15:11;16.23;;;6.15;;
48665;SDS011;34452;50.796;4.994;2024-03-23T06:17:37;16.67;;;6.22;;
48665;SDS011;34452;50.796;4.994;2024-03-23T06:20:03;21.55;;;5.50;;
48665;SDS011;34452;50.796;4.994;2024-03-23T06:22:31;20.15;;;5.13;;
48665;SDS011;34452;50.796;4.994;2024-03-23T06:24:58;13.48;;;4.80;;
48665;SDS011;34452;50.796;4.994;2024-03-23T06:27:24;19.60;;;5.28;;
48665;SDS011;34452;50.796;4.994;2024-03-23T06:29:50;17.88;;;5.15;;
48665;SDS011;34452;50.796;4.994;2024-03-23T06:32:16;15.40;;;4.75;;
48665;SDS011;34452;50.796;4.994;2024-03-23T06:34:42;21.83;;;5.40;;
48665;SDS011;34452;50.796;4.994;2024-03-23T06:37:08;20.60;;;5.78;;
48665;SDS011;34452;50.796;4.994;2024-03-23T06:39:37;18.58;;;4.90;;
48665;SDS011;34452;50.796;4.994;2024-03-23T06:42:04;11.10;;;3.92;;
48665;SDS011;34452;50.796;4.994;2024-03-23T06:44:30;20.85;;;5.90;;
48665;SDS011;34452;50.796;4.994;2024-03-23T06:46:56;17.83;;;5.88;;
48665;SDS011;34452;50.796;4.994;2024-03-23T06:51:49;17.52;;;5.57;;
48665;SDS011;34452;50.796;4.994;2024-03-23T06:54:14;22.85;;;5.05;;
48665;SDS011;34452;50.796;4.994;2024-03-23T06:56:44;20.45;;;6.47;;
48665;SDS011;34452;50.796;4.994;2024-03-23T06:59:10;18.05;;;4.40;;
48665;SDS011;34452;50.796;4.994;2024-03-23T07:01:36;17.95;;;5.57;;
48665;SDS011;34452;50.796;4.994;2024-03-23T07:04:02;21.92;;;5.70;;
48665;SDS011;34452;50.796;4.994;2024-03-23T07:06:29;27.00;;;4.93;;
48665;SDS011;34452;50.796;4.994;2024-03-23T07:08:55;16.08;;;4.70;;
48665;SDS011;34452;50.796;4.994;2024-03-23T07:11:22;18.35;;;4.20;;
48665;SDS011;34452;50.796;4.994;2024-03-23T07:13:51;19.33;;;4.28;;
48665;SDS011;34452;50.796;4.994;2024-03-23T07:16:19;15.68;;;3.83;;
48665;SDS011;34452;50.796;4.994;2024-03-23T07:18:45;22.40;;;4.72;;
48665;SDS011;34452;50.796;4.994;2024-03-23T07:21:11;12.65;;;4.80;;
48665;SDS011;34452;50.796;4.994;2024-03-23T07:23:37;20.27;;;4.38;;
48665;SDS011;34452;50.796;4.994;2024-03-23T07:26:03;19.05;;;3.80;;
48665;SDS011;34452;50.796;4.994;2024-03-23T07:28:30;20.85;;;4.80;;
48665;SDS011;34452;50.796;4.994;2024-03-23T07:31:07;16.50;;;4.03;;
48665;SDS011;34452;50.796;4.994;2024-03-23T07:33:34;22.05;;;4.20;;
48665;SDS011;34452;50.796;4.994;2024-03-23T07:36:01;16.05;;;3.22;;
48665;SDS011;34452;50.796;4.994;2024-03-23T07:38:27;22.00;;;3.67;;
48665;SDS011;34452;50.796;4.994;2024-03-23T07:41:06;21.27;;;3.78;;
48665;SDS011;34452;50.796;4.994;2024-03-23T07:43:34;15.65;;;3.88;;
48665;SDS011;34452;50.796;4.994;2024-03-23T07:46:00;19.70;;;3.83;;
48665;SDS011;34452;50.796;4.994;2024-03-23T07:48:26;21.50;;;4.68;;
48665;SDS011;34452;50.796;4.994;2024-03-23T07:50:59;20.05;;;4.35;;
48665;SDS011;34452;50.796;4.994;2024-03-23T07:53:26;17.55;;;3.55;;
48665;SDS011;34452;50.796;4.994;2024-03-23T07:55:54;6.45;;;1.90;;
48665;SDS011;34452;50.796;4.994;2024-03-23T07:58:30;12.05;;;2.50;;
48665;SDS011;34452;50.796;4.994;2024-03-23T08:00:56;14.02;;;2.25;;
48665;SDS011;34452;50.796;4.994;2024-03-23T08:03:28;9.73;;;2.03;;
48665;SDS011;34452;50.796;4.994;2024-03-23T08:05:54;13.05;;;2.47;;
48665;SDS011;34452;50.796;4.994;2024-03-23T08:08:19;12.15;;;2.13;;
48665;SDS011;34452;50.796;4.994;2024-03-23T08:10:51;14.13;;;2.20;;
48665;SDS011;34452;50.796;4.994;2024-03-23T08:13:20;9.88;;;2.20;;
48665;SDS011;34452;50.796;4.994;2024-03-23T08:15:46;12.05;;;2.13;;
48665;SDS011;34452;50.796;4.994;2024-03-23T08:18:12;9.02;;;1.90;;
48665;SDS011;34452;50.796;4.994;2024-03-23T08:20:40;11.75;;;2.45;;
48665;SDS011;34452;50.796;4.994;2024-03-23T08:23:06;9.38;;;2.42;;
48665;SDS011;34452;50.796;4.994;2024-03-23T08:25:32;13.43;;;2.60;;
48665;SDS011;34452;50.796;4.994;2024-03-23T08:27:59;13.50;;;2.90;;
48665;SDS011;34452;50.796;4.994;2024-03-23T08:30:24;18.75;;;3.83;;
48665;SDS011;34452;50.796;4.994;2024-03-23T08:32:50;16.83;;;3.42;;
48665;SDS011;34452;50.796;4.994;2024-03-23T08:35:16;13.30;;;3.42;;
48665;SDS011;34452;50.796;4.994;2024-03-23T08:37:42;20.35;;;4.22;;
48665;SDS011;34452;50.796;4.994;2024-03-23T08:40:08;12.20;;;3.25;;
48665;SDS011;34452;50.796;4.994;2024-03-23T08:42:34;19.88;;;3.83;;
48665;SDS011;34452;50.796;4.994;2024-03-23T08:45:00;19.45;;;3.92;;
48665;SDS011;34452;50.796;4.994;2024-03-23T08:47:26;17.45;;;3.22;;
48665;SDS011;34452;50.796;4.994;2024-03-23T08:49:52;19.63;;;3.60;;
48665;SDS011;34452;50.796;4.994;2024-03-23T08:52:18;23.92;;;4.65;;
48665;SDS011;34452;50.796;4.994;2024-03-23T08:54:43;13.32;;;3.05;;
48665;SDS011;34452;50.796;4.994;2024-03-23T08:57:09;17.63;;;3.30;;
48665;SDS011;34452;50.796;4.994;2024-03-23T08:59:35;20.47;;;3.93;;
48665;SDS011;34452;50.796;4.994;2024-03-23T09:02:02;16.90;;;3.00;;
48665;SDS011;34452;50.796;4.994;2024-03-23T09:04:28;20.15;;;3.47;;
48665;SDS011;34452;50.796;4.994;2024-03-23T09:06:54;14.20;;;2.95;;
48665;SDS011;34452;50.796;4.994;2024-03-23T09:09:19;16.95;;;3.47;;
48665;SDS011;34452;50.796;4.994;2024-03-23T09:11:45;13.57;;;3.78;;
48665;SDS011;34452;50.796;4.994;2024-03-23T09:14:11;12.82;;;2.85;;
48665;SDS011;34452;50.796;4.994;2024-03-23T09:16:37;21.83;;;3.85;;
48665;SDS011;34452;50.796;4.994;2024-03-23T09:19:02;26.45;;;4.43;;
48665;SDS011;34452;50.796;4.994;2024-03-23T09:21:28;13.48;;;3.03;;
48665;SDS011;34452;50.796;4.994;2024-03-23T09:23:54;18.25;;;3.28;;
48665;SDS011;34452;50.796;4.994;2024-03-23T09:26:19;19.60;;;3.60;;
48665;SDS011;34452;50.796;4.994;2024-03-23T09:28:48;15.02;;;2.70;;
48665;SDS011;34452;50.796;4.994;2024-03-23T09:31:14;13.68;;;3.42;;
48665;SDS011;34452;50.796;4.994;2024-03-23T09:33:40;15.00;;;3.47;;
48665;SDS011;34452;50.796;4.994;2024-03-23T09:36:07;19.42;;;3.25;;
48665;SDS011;34452;50.796;4.994;2024-03-23T09:38:33;15.00;;;5.25;;
48665;SDS011;34452;50.796;4.994;2024-03-23T09:40:59;19.40;;;3.45;;
48665;SDS011;34452;50.796;4.994;2024-03-23T09:43:25;15.63;;;2.70;;
48665;SDS011;34452;50.796;4.994;2024-03-23T09:45:51;15.82;;;2.92;;
48665;SDS011;34452;50.796;4.994;2024-03-23T09:48:18;10.18;;;2.55;;
48665;SDS011;34452;50.796;4.994;2024-03-23T09:50:44;12.60;;;2.80;;
48665;SDS011;34452;50.796;4.994;2024-03-23T09:53:11;10.35;;;2.83;;
48665;SDS011;34452;50.796;4.994;2024-03-23T09:55:38;14.85;;;2.97;;
48665;SDS011;34452;50.796;4.994;2024-03-23T09:58:05;11.80;;;2.58;;
48665;SDS011;34452;50.796;4.994;2024-03-23T10:00:34;11.55;;;2.95;;
48665;SDS011;34452;50.796;4.994;2024-03-23T10:03:00;17.08;;;2.80;;
48665;SDS011;34452;50.796;4.994;2024-03-23T10:05:27;10.40;;;2.42;;
48665;SDS011;34452;50.796;4.994;2024-03-23T10:07:54;18.40;;;3.78;;
48665;SDS011;34452;50.796;4.994;2024-03-23T10:10:20;13.65;;;3.00;;
48665;SDS011;34452;50.796;4.994;2024-03-23T10:12:49;12.18;;;2.83;;
48665;SDS011;34452;50.796;4.994;2024-03-23T10:15:22;8.57;;;2.28;;
48665;SDS011;34452;50.796;4.994;2024-03-23T10:17:49;11.25;;;2.33;;
48665;SDS011;34452;50.796;4.994;2024-03-23T10:20:22;8.02;;;2.47;;
48665;SDS011;34452;50.796;4.994;2024-03-23T10:22:51;12.05;;;2.45;;
48665;SDS011;34452;50.796;4.994;2024-03-23T10:25:17;11.80;;;2.88;;
48665;SDS011;34452;50.796;4.994;2024-03-23T10:27:58;16.88;;;2.63;;
48665;SDS011;34452;50.796;4.994;2024-03-23T10:30:27;8.98;;;2.42;;
48665;SDS011;34452;50.796;4.994;2024-03-23T10:33:09;13.20;;;2.60;;
48665;SDS011;34452;50.796;4.994;2024-03-23T10:35:39;11.52;;;2.53;;
48665;SDS011;34452;50.796;4.994;2024-03-23T10:38:05;16.55;;;2.53;;
48665;SDS011;34452;50.796;4.994;2024-03-23T10:40:33;13.70;;;2.58;;
48665;SDS011;34452;50.796;4.994;2024-03-23T10:43:00;7.93;;;2.30;;
48665;SDS011;34452;50.796;4.994;2024-03-23T10:45:27;10.32;;;2.00;;
48665;SDS011;34452;50.796;4.994;2024-03-23T10:47:53;14.88;;;2.45;;
48665;SDS011;34452;50.796;4.994;2024-03-23T10:50:19;10.02;;;2.58;;
48665;SDS011;34452;50.796;4.994;2024-03-23T10:52:48;11.00;;;1.98;;
48665;SDS011;34452;50.796;4.994;2024-03-23T10:55:15;9.60;;;1.60;;
48665;SDS011;34452;50.796;4.994;2024-03-23T10:57:44;6.65;;;1.63;;
48665;SDS011;34452;50.796;4.994;2024-03-23T11:00:18;6.22;;;1.38;;
48665;SDS011;34452;50.796;4.994;2024-03-23T11:02:46;8.82;;;1.80;;
48665;SDS011;34452;50.796;4.994;2024-03-23T11:05:31;7.95;;;1.52;;
48665;SDS011;34452;50.796;4.994;2024-03-23T11:07:57;7.32;;;2.08;;
48665;SDS011;34452;50.796;4.994;2024-03-23T11:10:26;7.60;;;1.70;;
48665;SDS011;34452;50.796;4.994;2024-03-23T11:12:54;4.97;;;1.40;;
48665;SDS011;34452;50.796;4.994;2024-03-23T11:15:23;10.73;;;1.88;;
48665;SDS011;34452;50.796;4.994;2024-03-23T11:18:07;10.23;;;1.63;;
48665;SDS011;34452;50.796;4.994;2024-03-23T11:20:37;7.63;;;1.83;;
48665;SDS011;34452;50.796;4.994;2024-03-23T11:23:03;12.30;;;1.98;;
48665;SDS011;34452;50.796;4.994;2024-03-23T11:27:56;6.47;;;1.73;;
48665;SDS011;34452;50.796;4.994;2024-03-23T11:32:52;7.93;;;1.80;;
48665;SDS011;34452;50.796;4.994;2024-03-23T11:35:32;7.57;;;1.60;;
48665;SDS011;34452;50.796;4.994;2024-03-23T11:38:05;7.78;;;1.70;;
48665;SDS011;34452;50.796;4.994;2024-03-23T11:40:46;7.03;;;1.38;;
48665;SDS011;34452;50.796;4.994;2024-03-23T11:43:14;8.02;;;1.95;;
48665;SDS011;34452;50.796;4.994;2024-03-23T11:45:48;8.45;;;1.50;;
48665;SDS011;34452;50.796;4.994;2024-03-23T11:48:20;10.55;;;1.92;;
48665;SDS011;34452;50.796;4.994;2024-03-23T11:50:47;9.18;;;1.50;;
48665;SDS011;34452;50.796;4.994;2024-03-23T11:53:20;5.93;;;1.52;;
48665;SDS011;34452;50.796;4.994;2024-03-23T11:55:48;5.00;;;1.40;;
48665;SDS011;34452;50.796;4.994;2024-03-23T11:58:18;8.88;;;1.35;;
48665;SDS011;34452;50.796;4.994;2024-03-23T12:00:56;6.10;;;1.10;;
48665;SDS011;34452;50.796;4.994;2024-03-23T12:05:58;7.53;;;1.63;;
48665;SDS011;34452;50.796;4.994;2024-03-23T12:08:28;8.23;;;1.35;;
48665;SDS011;34452;50.796;4.994;2024-03-23T12:11:13;4.90;;;1.27;;
48665;SDS011;34452;50.796;4.994;2024-03-23T12:13:43;7.97;;;1.40;;
48665;SDS011;34452;50.796;4.994;2024-03-23T12:16:15;9.93;;;1.98;;
48665;SDS011;34452;50.796;4.994;2024-03-23T12:18:43;8.52;;;2.45;;
48665;SDS011;34452;50.796;4.994;2024-03-23T12:21:09;6.60;;;1.23;;
48665;SDS011;34452;50.796;4.994;2024-03-23T12:23:36;9.50;;;1.88;;
48665;SDS011;34452;50.796;4.994;2024-03-23T12:26:04;5.03;;;1.55;;
48665;SDS011;34452;50.796;4.994;2024-03-23T12:28:30;6.35;;;1.70;;
48665;SDS011;34452;50.796;4.994;2024-03-23T12:30:55;7.97;;;1.58;;
48665;SDS011;34452;50.796;4.994;2024-03-23T12:33:21;7.53;;;1.50;;
48665;SDS011;34452;50.796;4.994;2024-03-23T12:35:47;5.80;;;1.63;;
48665;SDS011;34452;50.796;4.994;2024-03-23T12:38:14;6.38;;;1.38;;
48665;SDS011;34452;50.796;4.994;2024-03-23T12:40:39;8.48;;;2.05;;
48665;SDS011;34452;50.796;4.994;2024-03-23T12:43:06;7.38;;;1.20;;
48665;SDS011;34452;50.796;4.994;2024-03-23T12:45:32;14.23;;;2.33;;
48665;SDS011;34452;50.796;4.994;2024-03-23T12:47:58;11.50;;;1.45;;
48665;SDS011;34452;50.796;4.994;2024-03-23T12:50:24;12.88;;;1.92;;
48665;SDS011;34452;50.796;4.994;2024-03-23T12:52:50;2.95;;;1.00;;
48665;SDS011;34452;50.796;4.994;2024-03-23T12:55:16;8.00;;;1.42;;
48665;SDS011;34452;50.796;4.994;2024-03-23T12:57:42;4.53;;;1.15;;
48665;SDS011;34452;50.796;4.994;2024-03-23T13:00:08;5.97;;;1.60;;
48665;SDS011;34452;50.796;4.994;2024-03-23T13:02:38;5.93;;;0.93;;
48665;SDS011;34452;50.796;4.994;2024-03-23T13:07:30;8.05;;;1.10;;
48665;SDS011;34452;50.796;4.994;2024-03-23T13:09:55;8.80;;;1.85;;
48665;SDS011;34452;50.796;4.994;2024-03-23T13:12:22;8.25;;;1.60;;
48665;SDS011;34452;50.796;4.994;2024-03-23T13:14:48;8.57;;;1.77;;
48665;SDS011;34452;50.796;4.994;2024-03-23T13:17:14;8.05;;;1.70;;
48665;SDS011;34452;50.796;4.994;2024-03-23T13:19:40;9.07;;;1.48;;
48665;SDS011;34452;50.796;4.994;2024-03-23T13:24:32;5.00;;;1.52;;
48665;SDS011;34452;50.796;4.994;2024-03-23T13:26:58;8.63;;;1.50;;
48665;SDS011;34452;50.796;4.994;2024-03-23T13:29:24;5.25;;;1.10;;
48665;SDS011;34452;50.796;4.994;2024-03-23T13:34:16;5.65;;;1.20;;
48665;SDS011;34452;50.796;4.994;2024-03-23T13:36:46;6.05;;;1.15;;
48665;SDS011;34452;50.796;4.994;2024-03-23T13:39:12;3.85;;;1.17;;
48665;SDS011;34452;50.796;4.994;2024-03-23T13:41:39;5.90;;;1.45;;
48665;SDS011;34452;50.796;4.994;2024-03-23T13:44:12;8.02;;;2.17;;
48665;SDS011;34452;50.796;4.994;2024-03-23T13:46:41;7.32;;;1.52;;
48665;SDS011;34452;50.796;4.994;2024-03-23T13:49:10;4.85;;;1.75;;
48665;SDS011;34452;50.796;4.994;2024-03-23T13:51:59;6.53;;;1.45;;
48665;SDS011;34452;50.796;4.994;2024-03-23T13:54:28;7.50;;;1.30;;
48665;SDS011;34452;50.796;4.994;2024-03-23T13:56:54;7.13;;;1.38;;
48665;SDS011;34452;50.796;4.994;2024-03-23T13:59:21;9.30;;;1.40;;
48665;SDS011;34452;50.796;4.994;2024-03-23T14:01:50;9.00;;;1.65;;
48665;SDS011;34452;50.796;4.994;2024-03-23T14:04:16;7.88;;;1.52;;
48665;SDS011;34452;50.796;4.994;2024-03-23T14:06:44;7.22;;;1.52;;
48665;SDS011;34452;50.796;4.994;2024-03-23T14:11:36;9.05;;;1.42;;
48665;SDS011;34452;50.796;4.994;2024-03-23T14:14:02;6.93;;;1.48;;
48665;SDS011;34452;50.796;4.994;2024-03-23T14:16:29;5.82;;;1.48;;
48665;SDS011;34452;50.796;4.994;2024-03-23T14:18:55;7.38;;;1.40;;
48665;SDS011;34452;50.796;4.994;2024-03-23T14:21:21;4.60;;;1.65;;
48665;SDS011;34452;50.796;4.994;2024-03-23T14:23:47;5.75;;;1.60;;
48665;SDS011;34452;50.796;4.994;2024-03-23T14:26:12;4.93;;;1.17;;
48665;SDS011;34452;50.796;4.994;2024-03-23T14:28:38;8.52;;;1.83;;
48665;SDS011;34452;50.796;4.994;2024-03-23T14:31:04;6.85;;;1.75;;
48665;SDS011;34452;50.796;4.994;2024-03-23T14:33:35;4.60;;;1.20;;
48665;SDS011;34452;50.796;4.994;2024-03-23T14:36:11;7.67;;;1.43;;
48665;SDS011;34452;50.796;4.994;2024-03-23T14:38:41;5.90;;;1.40;;
48665;SDS011;34452;50.796;4.994;2024-03-23T14:41:07;6.35;;;1.38;;
48665;SDS011;34452;50.796;4.994;2024-03-23T14:43:33;4.20;;;0.90;;
48665;SDS011;34452;50.796;4.994;2024-03-23T14:48:35;3.55;;;1.00;;
48665;SDS011;34452;50.796;4.994;2024-03-23T14:51:01;4.15;;;0.80;;
48665;SDS011;34452;50.796;4.994;2024-03-23T14:53:32;3.55;;;1.08;;
48665;SDS011;34452;50.796;4.994;2024-03-23T14:55:59;6.03;;;1.20;;
48665;SDS011;34452;50.796;4.994;2024-03-23T14:58:26;4.30;;;0.98;;
48665;SDS011;34452;50.796;4.994;2024-03-23T15:00:52;3.65;;;1.02;;
48665;SDS011;34452;50.796;4.994;2024-03-23T15:03:18;5.85;;;1.05;;
48665;SDS011;34452;50.796;4.994;2024-03-23T15:05:54;5.82;;;1.08;;
48665;SDS011;34452;50.796;4.994;2024-03-23T15:08:24;4.90;;;1.13;;
48665;SDS011;34452;50.796;4.994;2024-03-23T15:10:50;4.63;;;1.08;;
48665;SDS011;34452;50.796;4.994;2024-03-23T15:13:16;4.95;;;0.98;;
48665;SDS011;34452;50.796;4.994;2024-03-23T15:15:42;5.53;;;1.15;;
48665;SDS011;34452;50.796;4.994;2024-03-23T15:18:12;4.13;;;1.10;;
48665;SDS011;34452;50.796;4.994;2024-03-23T15:20:40;4.55;;;1.08;;
48665;SDS011;34452;50.796;4.994;2024-03-23T15:23:06;5.00;;;1.27;;
48665;SDS011;34452;50.796;4.994;2024-03-23T15:25:33;8.25;;;1.45;;
48665;SDS011;34452;50.796;4.994;2024-03-23T15:27:59;7.32;;;1.25;;
48665;SDS011;34452;50.796;4.994;2024-03-23T15:30:26;4.05;;;1.50;;
48665;SDS011;34452;50.796;4.994;2024-03-23T15:35:17;24.98;;;9.15;;
48665;SDS011;34452;50.796;4.994;2024-03-23T15:37:48;9.85;;;2.60;;
48665;SDS011;34452;50.796;4.994;2024-03-23T15:40:15;7.25;;;1.95;;
48665;SDS011;34452;50.796;4.994;2024-03-23T15:42:41;7.32;;;1.52;;
48665;SDS011;34452;50.796;4.994;2024-03-23T15:45:07;6.35;;;1.58;;
48665;SDS011;34452;50.796;4.994;2024-03-23T15:47:35;8.73;;;1.38;;
48665;SDS011;34452;50.796;4.994;2024-03-23T15:50:01;7.28;;;1.75;;
48665;SDS011;34452;50.796;4.994;2024-03-23T15:52:33;6.15;;;1.65;;
48665;SDS011;34452;50.796;4.994;2024-03-23T15:55:00;4.40;;;1.50;;
48665;SDS011;34452;50.796;4.994;2024-03-23T15:57:27;6.60;;;1.85;;
48665;SDS011;34452;50.796;4.994;2024-03-23T15:59:52;5.28;;;1.30;;
48665;SDS011;34452;50.796;4.994;2024-03-23T16:02:18;7.93;;;1.65;;
48665;SDS011;34452;50.796;4.994;2024-03-23T16:04:44;4.55;;;1.30;;
48665;SDS011;34452;50.796;4.994;2024-03-23T16:07:10;6.07;;;1.55;;
48665;SDS011;34452;50.796;4.994;2024-03-23T16:09:37;6.10;;;1.48;;
48665;SDS011;34452;50.796;4.994;2024-03-23T16:12:03;6.78;;;1.30;;
48665;SDS011;34452;50.796;4.994;2024-03-23T16:14:29;7.93;;;1.60;;
48665;SDS011;34452;50.796;4.994;2024-03-23T16:16:55;7.35;;;1.83;;